Latest Weather Observations for Sydney Harbour

IDN60801

Issued at 1:02 am EST Monday 30 May 2016 (issued every 30 minutes, with the page automatically refreshed every 10 minutes)

About weather observations | Map of weather stations | Latest weather observations for NSW | Other Formats
Station Details ID: 066196 Name: WEDDING CAKE WEST Lat: -33.84 Lon: 151.26 Height: 6.0 m
Data from the previous 72 hours. | See also: Recent months at Sydney Harbour
Date/Time
EST
Temp
°C
App
Temp
°C
Dew
Point
Rel
Hum
%
Delta-T
°C
Wind Press
QNH
hPa
Press
MSL
hPa
Rain
since 9 am
mm
Dir
 
Spd
km/h
Gust
km/h
Spd
kts
Gust
kts
30/01:00am 11.1 - - - - WSW 37 48 20 26 - - -
30/12:30am 11.5 - - - - WSW 35 46 19 25 - - -
30/12:00am 12.0 - - - - WSW 33 43 18 23 - - -
 
Date/Time
EST
Temp
°C
App
Temp
°C
Dew
Point
Rel
Hum
%
Delta-T
°C
Wind Press
QNH
hPa
Press
MSL
hPa
Rain
since 9 am
mm
Dir
 
Spd
km/h
Gust
km/h
Spd
kts
Gust
kts
29/11:30pm 12.4 - - - - WSW 30 37 16 20 - - -
29/11:00pm 13.2 - - - - WSW 20 28 11 15 - - -
29/10:30pm 13.4 - - - - WSW 22 28 12 15 - - -
29/10:00pm 14.2 - - - - WSW 20 26 11 14 - - -
29/09:30pm 14.0 - - - - WSW 22 30 12 16 - - -
29/09:00pm 14.6 - - - - SW 24 33 13 18 - - -
29/08:30pm 14.9 - - - - WSW 17 26 9 14 - - -
29/08:00pm 15.3 - - - - SW 26 30 14 16 - - -
29/07:30pm 16.2 - - - - SW 22 26 12 14 - - -
29/07:00pm 16.5 - - - - WSW 17 22 9 12 - - -
29/06:30pm 15.8 - - - - W 7 9 4 5 - - -
29/06:00pm 16.2 - - - - W 7 11 4 6 - - -
29/05:30pm 16.8 - - - - W 7 9 4 5 - - -
29/05:00pm 16.6 - - - - CALM 0 0 0 0 - - -
29/04:30pm 17.1 - - - - CALM 0 0 0 0 - - -
29/04:00pm 17.9 - - - - W 6 7 3 4 - - -
29/03:30pm 17.8 - - - - W 11 15 6 8 - - -
29/03:00pm 17.4 - - - - WSW 15 22 8 12 - - -
29/02:30pm 17.4 - - - - W 19 24 10 13 - - -
29/02:00pm 16.8 - - - - WSW 19 26 10 14 - - -
29/01:30pm 16.5 - - - - WSW 19 24 10 13 - - -
29/01:00pm 16.3 - - - - WSW 17 24 9 13 - - -
29/12:30pm 15.9 - - - - W 22 32 12 17 - - -
29/12:00pm 15.3 - - - - WSW 20 28 11 15 - - -
29/11:30am 14.5 - - - - WSW 24 32 13 17 - - -
29/11:00am 14.0 - - - - W 28 35 15 19 - - -
29/10:30am 13.5 - - - - WSW 28 35 15 19 - - -
29/10:00am 12.8 - - - - WSW 24 33 13 18 - - -
29/09:30am 12.3 - - - - WSW 22 30 12 16 - - -
29/09:00am 12.1 - - - - WSW 22 28 12 15 - - -
29/08:30am 11.8 - - - - W 17 20 9 11 - - -
29/08:00am 11.4 - - - - W 17 24 9 13 - - -
29/07:30am 11.4 - - - - WSW 19 24 10 13 - - -
29/07:00am 11.3 - - - - W 19 22 10 12 - - -
29/06:30am 11.6 - - - - W 17 20 9 11 - - -
29/06:00am 11.8 - - - - WSW 19 24 10 13 - - -
29/05:30am 11.7 - - - - WSW 19 22 10 12 - - -
29/05:00am 11.9 - - - - W 22 28 12 15 - - -
29/04:30am 12.2 - - - - W 24 32 13 17 - - -
29/04:00am 12.3 - - - - W 30 37 16 20 - - -
29/03:30am 12.5 - - - - W 26 35 14 19 - - -
29/03:00am 12.5 - - - - W 24 33 13 18 - - -
29/02:30am 12.7 - - - - W 32 44 17 24 - - -
29/02:00am 13.0 - - - - W 33 43 18 23 - - -
29/01:30am 12.8 - - - - W 33 46 18 25 - - -
29/01:00am 13.1 - - - - W 33 46 18 25 - - -
29/12:30am 13.3 - - - - W 33 46 18 25 - - -
29/12:00am 13.2 - - - - W 37 48 20 26 - - -
 
Date/Time
EST
Temp
°C
App
Temp
°C
Dew
Point
Rel
Hum
%
Delta-T
°C
Wind Press
QNH
hPa
Press
MSL
hPa
Rain
since 9 am
mm
Dir
 
Spd
km/h
Gust
km/h
Spd
kts
Gust
kts
28/11:30pm 13.3 - - - - W 32 44 17 24 - - -
28/11:00pm 13.5 - - - - W 30 39 16 21 - - -
28/10:30pm 13.7 - - - - W 32 44 17 24 - - -
28/10:00pm 13.6 - - - - W 30 37 16 20 - - -
28/09:30pm 13.9 - - - - W 30 39 16 21 - - -
28/09:00pm 13.9 - - - - WSW 32 48 17 26 - - -
28/08:30pm 14.0 - - - - W 33 48 18 26 - - -
28/08:00pm 14.1 - - - - W 33 44 18 24 - - -
28/07:30pm 14.3 - - - - WSW 24 35 13 19 - - -
28/07:00pm 14.3 - - - - W 24 30 13 16 - - -
28/06:30pm 14.6 - - - - WSW 24 30 13 16 - - -
28/06:00pm 15.3 - - - - SW 26 35 14 19 - - -
28/05:30pm 15.4 - - - - WSW 26 35 14 19 - - -
28/05:00pm 15.5 - - - - WSW 26 39 14 21 - - -
28/04:30pm 15.1 - - - - W 22 32 12 17 - - -
28/04:00pm 14.9 - - - - WSW 20 35 11 19 - - -
28/03:30pm 14.4 - - - - WSW 17 22 9 12 - - -
28/03:00pm 13.8 - - - - WSW 17 24 9 13 - - -
28/02:30pm 13.3 - - - - W 15 20 8 11 - - -
28/02:00pm 12.6 - - - - W 17 20 9 11 - - -
28/01:30pm 12.3 - - - - W 17 20 9 11 - - -
28/01:00pm 12.2 - - - - W 17 22 9 12 - - -
28/12:30pm 12.4 - - - - WSW 17 20 9 11 - - -
28/12:00pm 12.5 - - - - W 17 24 9 13 - - -
28/11:30am 12.1 - - - - W 20 26 11 14 - - -
28/11:00am 12.0 - - - - WNW 20 26 11 14 - - -
28/10:30am 12.7 - - - - NW 15 20 8 11 - - -
28/10:00am 13.8 - - - - NW 11 19 6 10 - - -
28/09:30am 13.6 - - - - NW 11 17 6 9 - - -
28/09:00am 13.8 - - - - NNW 17 20 9 11 - - -
28/08:30am 13.6 - - - - NNW 17 22 9 12 - - -
28/08:00am 13.2 - - - - NNW 19 28 10 15 - - -
28/07:30am 12.9 - - - - NNW 22 32 12 17 - - -
28/07:00am 12.2 - - - - NNW 22 28 12 15 - - -
28/06:30am 12.2 - - - - NNW 22 28 12 15 - - -
28/06:00am 12.2 - - - - NNW 20 24 11 13 - - -
28/05:30am 12.1 - - - - NNW 20 28 11 15 - - -
28/05:00am 12.2 - - - - NNW 19 24 10 13 - - -
28/04:30am 12.1 - - - - NNW 19 22 10 12 - - -
28/04:00am 12.9 - - - - NW 20 24 11 13 - - -
28/03:30am 12.3 - - - - NW 17 20 9 11 - - -
28/03:00am 13.2 - - - - NW 17 20 9 11 - - -
28/02:30am 13.1 - - - - WNW 15 19 8 10 - - -
28/02:00am 13.0 - - - - W 13 17 7 9 - - -
28/01:30am 12.7 - - - - WNW 11 13 6 7 - - -
28/01:00am 12.6 - - - - W 11 13 6 7 - - -
28/12:30am 13.2 - - - - WNW 17 20 9 11 - - -
28/12:00am 13.3 - - - - W 15 24 8 13 - - -
 
Date/Time
EST
Temp
°C
App
Temp
°C
Dew
Point
Rel
Hum
%
Delta-T
°C
Wind Press
QNH
hPa
Press
MSL
hPa
Rain
since 9 am
mm
Dir
 
Spd
km/h
Gust
km/h
Spd
kts
Gust
kts
27/11:30pm 13.6 - - - - W 19 24 10 13 - - -
27/11:00pm 13.5 - - - - WNW 15 22 8 12 - - -
27/10:30pm 13.7 - - - - W 26 30 14 16 - - -
27/10:00pm 13.8 - - - - W 20 26 11 14 - - -
27/09:30pm 14.1 - - - - W 20 26 11 14 - - -
27/09:00pm 14.5 - - - - W 28 37 15 20 - - -
27/08:30pm 14.7 - - - - W 32 44 17 24 - - -
27/08:00pm 14.9 - - - - W 24 35 13 19 - - -
27/07:30pm 15.3 - - - - WSW 26 39 14 21 - - -
27/07:00pm 15.5 - - - - WSW 20 33 11 18 - - -
27/06:30pm 15.9 - - - - WSW 26 33 14 18 - - -
27/06:05pm 16.1 - - - - W 35 54 19 29 - - -
27/06:00pm 16.1 - - - - W 39 54 21 29 - - -
27/05:30pm 16.4 - - - - W 39 57 21 31 - - -
27/05:22pm 16.4 - - - - W 35 54 19 29 - - -
27/05:00pm 16.7 - - - - W 41 56 22 30 - - -
27/04:46pm 16.8 - - - - W 41 61 22 33 - - -
27/04:30pm 16.8 - - - - W 37 48 20 26 - - -
27/04:07pm 16.9 - - - - WSW 41 61 22 33 - - -
27/04:00pm 17.0 - - - - WSW 43 59 23 32 - - -
27/03:44pm 17.1 - - - - WSW 37 56 20 30 - - -
27/03:30pm 17.1 - - - - W 46 61 25 33 - - -
27/03:05pm 17.2 - - - - W 46 69 25 37 - - -
27/03:00pm 17.4 - - - - W 43 59 23 32 - - -
27/02:30pm 17.3 - - - - WSW 37 59 20 32 - - -
27/02:17pm 17.5 - - - - WSW 32 59 17 32 - - -
27/02:00pm 17.5 - - - - WSW 32 46 17 25 - - -
27/01:54pm 17.5 - - - - WSW 33 43 18 23 - - -
27/01:35pm 17.6 - - - - W 37 56 20 30 - - -
27/01:30pm 17.4 - - - - W 39 56 21 30 - - -
27/01:07pm 17.3 - - - - W 32 52 17 28 - - -
27/01:00pm 17.4 - - - - W 32 46 17 25 - - -
27/12:30pm 17.1 - - - - WSW 33 56 18 30 - - -
27/12:20pm 17.0 - - - - WSW 32 56 17 30 - - -
27/12:00pm 16.9 - - - - WSW 35 46 19 25 - - -
27/11:30am 16.6 - - - - WSW 33 43 18 23 - - -
27/11:00am 16.1 - - - - W 24 32 13 17 - - -
27/10:30am 15.7 - - - - W 26 35 14 19 - - -
27/10:00am 15.3 - - - - W 30 39 16 21 - - -
27/09:30am 14.9 - - - - W 20 30 11 16 - - -
27/09:00am 14.5 - - - - W 24 32 13 17 - - -
27/08:30am 14.3 - - - - W 30 39 16 21 - - -
27/08:00am 14.3 - - - - W 22 30 12 16 - - -
27/07:30am 14.0 - - - - W 22 30 12 16 - - -
27/07:00am 13.9 - - - - WNW 28 35 15 19 - - -
27/06:30am 14.1 - - - - WNW 15 20 8 11 - - -
27/06:00am 14.2 - - - - NW 11 15 6 8 - - -
27/05:30am 14.3 - - - - WNW 17 24 9 13 - - -
27/05:00am 15.1 - - - - WSW 28 39 15 21 - - -
27/04:30am 15.1 - - - - WSW 28 41 15 22 - - -
27/04:00am 15.0 - - - - W 28 37 15 20 - - -
27/03:30am 15.5 - - - - W 32 46 17 25 - - -
27/03:00am 15.4 - - - - WNW 32 39 17 21 - - -
27/02:46am 15.7 - - - - W 32 54 17 29 - - -
27/02:30am 15.9 - - - - WSW 33 48 18 26 - - -
27/02:21am 16.1 - - - - SW 26 48 14 26 - - -
27/02:20am 16.0 - - - - SW 22 41 12 22 - - -
27/02:00am 15.5 - - - - W 11 17 6 9 - - -
27/01:30am 16.0 - - - - W 15 20 8 11 - - -

Other Formats:

Comma delimited format used in spreadsheet applications
http://www.bom.gov.au/fwo/IDN60801/IDN60801.95766.axf

JavaScript Object Notation format (JSON) in row-major order
http://www.bom.gov.au/fwo/IDN60801/IDN60801.95766.json